sensor_id;sensor_type;location;lat;lon;timestamp;P1;durP1;ratioP1;P2;durP2;ratioP2
34920;SDS011;21128;50.016;20.002;2023-11-19T00:00:22;39.40;;;21.10;;
34920;SDS011;21128;50.016;20.002;2023-11-19T00:03:28;33.40;;;19.20;;
34920;SDS011;21128;50.016;20.002;2023-11-19T00:06:13;35.50;;;20.30;;
34920;SDS011;21128;50.016;20.002;2023-11-19T00:08:59;47.30;;;23.00;;
34920;SDS011;21128;50.016;20.002;2023-11-19T00:11:45;40.00;;;21.30;;
34920;SDS011;21128;50.016;20.002;2023-11-19T00:14:37;37.10;;;21.10;;
34920;SDS011;21128;50.016;20.002;2023-11-19T00:17:22;36.60;;;21.30;;
34920;SDS011;21128;50.016;20.002;2023-11-19T00:20:08;34.90;;;20.90;;
34920;SDS011;21128;50.016;20.002;2023-11-19T00:22:53;37.80;;;21.30;;
34920;SDS011;21128;50.016;20.002;2023-11-19T00:25:39;39.90;;;21.60;;
34920;SDS011;21128;50.016;20.002;2023-11-19T00:31:19;39.40;;;21.10;;
34920;SDS011;21128;50.016;20.002;2023-11-19T00:34:04;34.90;;;19.40;;
34920;SDS011;21128;50.016;20.002;2023-11-19T00:36:51;36.70;;;20.40;;
34920;SDS011;21128;50.016;20.002;2023-11-19T00:39:37;35.90;;;20.60;;
34920;SDS011;21128;50.016;20.002;2023-11-19T00:42:22;38.10;;;19.70;;
34920;SDS011;21128;50.016;20.002;2023-11-19T00:45:09;33.50;;;20.30;;
34920;SDS011;21128;50.016;20.002;2023-11-19T00:47:55;34.80;;;20.10;;
34920;SDS011;21128;50.016;20.002;2023-11-19T00:50:47;31.90;;;19.30;;
34920;SDS011;21128;50.016;20.002;2023-11-19T00:53:32;34.30;;;19.10;;
34920;SDS011;21128;50.016;20.002;2023-11-19T00:56:19;29.70;;;17.40;;
34920;SDS011;21128;50.016;20.002;2023-11-19T00:59:05;33.00;;;19.30;;
34920;SDS011;21128;50.016;20.002;2023-11-19T01:01:50;34.90;;;19.70;;
34920;SDS011;21128;50.016;20.002;2023-11-19T01:04:36;35.80;;;21.10;;
34920;SDS011;21128;50.016;20.002;2023-11-19T01:07:21;34.30;;;18.30;;
34920;SDS011;21128;50.016;20.002;2023-11-19T01:10:09;31.40;;;19.40;;
34920;SDS011;21128;50.016;20.002;2023-11-19T01:12:55;35.80;;;18.40;;
34920;SDS011;21128;50.016;20.002;2023-11-19T01:15:40;27.60;;;18.10;;
34920;SDS011;21128;50.016;20.002;2023-11-19T01:18:26;28.50;;;17.30;;
34920;SDS011;21128;50.016;20.002;2023-11-19T01:21:12;32.50;;;19.00;;
34920;SDS011;21128;50.016;20.002;2023-11-19T01:24:06;34.10;;;20.20;;
34920;SDS011;21128;50.016;20.002;2023-11-19T01:27:00;33.70;;;19.60;;
34920;SDS011;21128;50.016;20.002;2023-11-19T01:29:46;34.80;;;19.90;;
34920;SDS011;21128;50.016;20.002;2023-11-19T01:32:32;32.80;;;19.00;;
34920;SDS011;21128;50.016;20.002;2023-11-19T01:35:17;32.30;;;19.00;;
34920;SDS011;21128;50.016;20.002;2023-11-19T01:38:03;35.00;;;20.60;;
34920;SDS011;21128;50.016;20.002;2023-11-19T01:40:48;31.50;;;18.50;;
34920;SDS011;21128;50.016;20.002;2023-11-19T01:43:41;36.30;;;20.10;;
34920;SDS011;21128;50.016;20.002;2023-11-19T01:46:26;30.30;;;19.00;;
34920;SDS011;21128;50.016;20.002;2023-11-19T01:49:12;32.30;;;20.00;;
34920;SDS011;21128;50.016;20.002;2023-11-19T01:52:07;33.40;;;19.80;;
34920;SDS011;21128;50.016;20.002;2023-11-19T01:55:00;22.30;;;14.20;;
34920;SDS011;21128;50.016;20.002;2023-11-19T01:57:46;29.20;;;17.80;;
34920;SDS011;21128;50.016;20.002;2023-11-19T02:00:34;37.40;;;20.60;;
34920;SDS011;21128;50.016;20.002;2023-11-19T02:03:19;34.40;;;20.00;;
34920;SDS011;21128;50.016;20.002;2023-11-19T02:06:05;32.10;;;19.50;;
34920;SDS011;21128;50.016;20.002;2023-11-19T02:08:52;30.70;;;18.70;;
34920;SDS011;21128;50.016;20.002;2023-11-19T02:11:39;33.50;;;20.60;;
34920;SDS011;21128;50.016;20.002;2023-11-19T02:14:26;32.00;;;19.50;;
34920;SDS011;21128;50.016;20.002;2023-11-19T02:17:25;38.60;;;20.50;;
34920;SDS011;21128;50.016;20.002;2023-11-19T02:20:17;32.30;;;19.40;;
34920;SDS011;21128;50.016;20.002;2023-11-19T02:23:05;37.10;;;20.30;;
34920;SDS011;21128;50.016;20.002;2023-11-19T02:26:13;32.60;;;18.80;;
34920;SDS011;21128;50.016;20.002;2023-11-19T02:29:09;37.80;;;20.40;;
34920;SDS011;21128;50.016;20.002;2023-11-19T02:31:55;36.80;;;21.40;;
34920;SDS011;21128;50.016;20.002;2023-11-19T02:34:41;33.10;;;20.50;;
34920;SDS011;21128;50.016;20.002;2023-11-19T02:37:27;35.50;;;19.50;;
34920;SDS011;21128;50.016;20.002;2023-11-19T02:40:13;30.30;;;18.90;;
34920;SDS011;21128;50.016;20.002;2023-11-19T02:42:58;32.60;;;18.80;;
34920;SDS011;21128;50.016;20.002;2023-11-19T02:45:44;33.40;;;18.70;;
34920;SDS011;21128;50.016;20.002;2023-11-19T02:48:30;33.40;;;20.00;;
34920;SDS011;21128;50.016;20.002;2023-11-19T02:51:23;35.80;;;19.40;;
34920;SDS011;21128;50.016;20.002;2023-11-19T02:54:08;33.30;;;19.50;;
34920;SDS011;21128;50.016;20.002;2023-11-19T02:56:55;31.50;;;19.00;;
34920;SDS011;21128;50.016;20.002;2023-11-19T02:59:44;34.40;;;20.20;;
34920;SDS011;21128;50.016;20.002;2023-11-19T03:02:30;33.80;;;20.40;;
34920;SDS011;21128;50.016;20.002;2023-11-19T03:05:19;34.80;;;20.70;;
34920;SDS011;21128;50.016;20.002;2023-11-19T03:08:04;38.00;;;19.90;;
34920;SDS011;21128;50.016;20.002;2023-11-19T03:10:50;33.60;;;19.70;;
34920;SDS011;21128;50.016;20.002;2023-11-19T03:13:35;32.50;;;18.60;;
34920;SDS011;21128;50.016;20.002;2023-11-19T03:16:21;33.20;;;20.30;;
34920;SDS011;21128;50.016;20.002;2023-11-19T03:19:06;28.70;;;18.10;;
34920;SDS011;21128;50.016;20.002;2023-11-19T03:21:52;33.40;;;21.00;;
34920;SDS011;21128;50.016;20.002;2023-11-19T03:24:37;42.10;;;23.80;;
34920;SDS011;21128;50.016;20.002;2023-11-19T03:27:29;43.90;;;22.70;;
34920;SDS011;21128;50.016;20.002;2023-11-19T03:30:15;39.70;;;21.40;;
34920;SDS011;21128;50.016;20.002;2023-11-19T03:33:02;38.50;;;22.30;;
34920;SDS011;21128;50.016;20.002;2023-11-19T03:35:48;36.60;;;21.50;;
34920;SDS011;21128;50.016;20.002;2023-11-19T03:38:33;36.80;;;23.00;;
34920;SDS011;21128;50.016;20.002;2023-11-19T03:41:19;38.70;;;22.00;;
34920;SDS011;21128;50.016;20.002;2023-11-19T03:46:58;40.20;;;22.10;;
34920;SDS011;21128;50.016;20.002;2023-11-19T03:49:50;40.40;;;23.10;;
34920;SDS011;21128;50.016;20.002;2023-11-19T03:52:36;38.50;;;23.30;;
34920;SDS011;21128;50.016;20.002;2023-11-19T03:55:21;48.60;;;24.40;;
34920;SDS011;21128;50.016;20.002;2023-11-19T03:58:07;41.40;;;23.60;;
34920;SDS011;21128;50.016;20.002;2023-11-19T04:00:52;44.40;;;24.90;;
34920;SDS011;21128;50.016;20.002;2023-11-19T04:03:38;46.00;;;25.20;;
34920;SDS011;21128;50.016;20.002;2023-11-19T04:06:24;44.60;;;24.90;;
34920;SDS011;21128;50.016;20.002;2023-11-19T04:09:09;47.30;;;26.20;;
34920;SDS011;21128;50.016;20.002;2023-11-19T04:11:55;43.00;;;23.00;;
34920;SDS011;21128;50.016;20.002;2023-11-19T04:14:40;46.20;;;24.80;;
34920;SDS011;21128;50.016;20.002;2023-11-19T04:17:26;44.30;;;24.50;;
34920;SDS011;21128;50.016;20.002;2023-11-19T04:20:11;45.00;;;25.10;;
34920;SDS011;21128;50.016;20.002;2023-11-19T04:22:58;46.30;;;24.20;;
34920;SDS011;21128;50.016;20.002;2023-11-19T04:25:45;43.40;;;24.90;;
34920;SDS011;21128;50.016;20.002;2023-11-19T04:28:44;48.40;;;26.20;;
34920;SDS011;21128;50.016;20.002;2023-11-19T04:31:30;44.80;;;25.60;;
34920;SDS011;21128;50.016;20.002;2023-11-19T04:34:16;44.20;;;25.40;;
34920;SDS011;21128;50.016;20.002;2023-11-19T04:37:02;43.40;;;24.90;;
34920;SDS011;21128;50.016;20.002;2023-11-19T04:39:48;45.90;;;26.40;;
34920;SDS011;21128;50.016;20.002;2023-11-19T04:42:40;44.70;;;26.70;;
34920;SDS011;21128;50.016;20.002;2023-11-19T04:45:26;48.00;;;27.70;;
34920;SDS011;21128;50.016;20.002;2023-11-19T04:48:18;49.00;;;27.20;;
34920;SDS011;21128;50.016;20.002;2023-11-19T04:51:04;41.70;;;25.50;;
34920;SDS011;21128;50.016;20.002;2023-11-19T04:53:50;45.80;;;25.90;;
34920;SDS011;21128;50.016;20.002;2023-11-19T04:56:36;48.20;;;26.70;;
34920;SDS011;21128;50.016;20.002;2023-11-19T04:59:22;48.00;;;26.60;;
34920;SDS011;21128;50.016;20.002;2023-11-19T05:02:08;47.60;;;28.00;;
34920;SDS011;21128;50.016;20.002;2023-11-19T05:04:54;52.30;;;28.20;;
34920;SDS011;21128;50.016;20.002;2023-11-19T05:07:40;49.10;;;27.60;;
34920;SDS011;21128;50.016;20.002;2023-11-19T05:10:26;50.70;;;29.20;;
34920;SDS011;21128;50.016;20.002;2023-11-19T05:13:14;52.40;;;28.70;;
34920;SDS011;21128;50.016;20.002;2023-11-19T05:16:00;52.40;;;29.80;;
34920;SDS011;21128;50.016;20.002;2023-11-19T05:18:45;50.60;;;28.80;;
34920;SDS011;21128;50.016;20.002;2023-11-19T05:21:30;52.60;;;28.50;;
34920;SDS011;21128;50.016;20.002;2023-11-19T05:24:16;55.60;;;28.60;;
34920;SDS011;21128;50.016;20.002;2023-11-19T05:27:02;52.20;;;28.20;;
34920;SDS011;21128;50.016;20.002;2023-11-19T05:30:03;49.80;;;28.30;;
34920;SDS011;21128;50.016;20.002;2023-11-19T05:32:55;49.50;;;28.70;;
34920;SDS011;21128;50.016;20.002;2023-11-19T05:35:41;55.90;;;31.40;;
34920;SDS011;21128;50.016;20.002;2023-11-19T05:38:27;53.50;;;29.30;;
34920;SDS011;21128;50.016;20.002;2023-11-19T05:41:14;51.50;;;28.60;;
34920;SDS011;21128;50.016;20.002;2023-11-19T05:44:00;56.10;;;27.50;;
34920;SDS011;21128;50.016;20.002;2023-11-19T05:46:45;47.40;;;28.00;;
34920;SDS011;21128;50.016;20.002;2023-11-19T05:49:37;49.30;;;28.20;;
34920;SDS011;21128;50.016;20.002;2023-11-19T05:52:23;54.20;;;28.10;;
34920;SDS011;21128;50.016;20.002;2023-11-19T05:55:08;49.80;;;27.50;;
34920;SDS011;21128;50.016;20.002;2023-11-19T05:57:55;52.30;;;29.90;;
34920;SDS011;21128;50.016;20.002;2023-11-19T06:00:41;49.10;;;27.30;;
34920;SDS011;21128;50.016;20.002;2023-11-19T06:03:26;50.20;;;27.90;;
34920;SDS011;21128;50.016;20.002;2023-11-19T06:06:13;55.70;;;28.50;;
34920;SDS011;21128;50.016;20.002;2023-11-19T06:08:59;52.00;;;28.90;;
34920;SDS011;21128;50.016;20.002;2023-11-19T06:11:44;50.30;;;28.10;;
34920;SDS011;21128;50.016;20.002;2023-11-19T06:14:29;51.70;;;28.10;;
34920;SDS011;21128;50.016;20.002;2023-11-19T06:17:21;53.10;;;28.50;;
34920;SDS011;21128;50.016;20.002;2023-11-19T06:20:07;48.20;;;27.50;;
34920;SDS011;21128;50.016;20.002;2023-11-19T06:22:53;53.40;;;29.80;;
34920;SDS011;21128;50.016;20.002;2023-11-19T06:25:39;51.80;;;28.30;;
34920;SDS011;21128;50.016;20.002;2023-11-19T06:28:37;51.90;;;28.50;;
34920;SDS011;21128;50.016;20.002;2023-11-19T06:31:29;54.20;;;30.00;;
34920;SDS011;21128;50.016;20.002;2023-11-19T06:34:15;55.60;;;29.40;;
34920;SDS011;21128;50.016;20.002;2023-11-19T06:37:01;52.80;;;27.70;;
34920;SDS011;21128;50.016;20.002;2023-11-19T06:39:49;44.90;;;25.60;;
34920;SDS011;21128;50.016;20.002;2023-11-19T06:42:35;47.90;;;26.60;;
34920;SDS011;21128;50.016;20.002;2023-11-19T06:45:20;48.50;;;27.30;;
34920;SDS011;21128;50.016;20.002;2023-11-19T06:48:06;50.30;;;26.40;;
34920;SDS011;21128;50.016;20.002;2023-11-19T06:50:52;43.20;;;24.90;;
34920;SDS011;21128;50.016;20.002;2023-11-19T06:53:37;44.90;;;25.90;;
34920;SDS011;21128;50.016;20.002;2023-11-19T06:56:25;47.00;;;26.70;;
34920;SDS011;21128;50.016;20.002;2023-11-19T06:59:10;43.90;;;25.00;;
34920;SDS011;21128;50.016;20.002;2023-11-19T07:02:02;38.80;;;23.30;;
34920;SDS011;21128;50.016;20.002;2023-11-19T07:04:50;45.40;;;25.80;;
34920;SDS011;21128;50.016;20.002;2023-11-19T07:07:36;43.60;;;24.30;;
34920;SDS011;21128;50.016;20.002;2023-11-19T07:10:21;40.20;;;23.30;;
34920;SDS011;21128;50.016;20.002;2023-11-19T07:13:07;40.50;;;22.70;;
34920;SDS011;21128;50.016;20.002;2023-11-19T07:15:52;34.60;;;20.90;;
34920;SDS011;21128;50.016;20.002;2023-11-19T07:18:38;35.80;;;20.90;;
34920;SDS011;21128;50.016;20.002;2023-11-19T07:21:23;36.60;;;20.40;;
34920;SDS011;21128;50.016;20.002;2023-11-19T07:24:09;39.20;;;20.20;;
34920;SDS011;21128;50.016;20.002;2023-11-19T07:27:05;33.10;;;20.80;;
34920;SDS011;21128;50.016;20.002;2023-11-19T07:29:51;33.40;;;20.10;;
34920;SDS011;21128;50.016;20.002;2023-11-19T07:32:43;31.10;;;18.80;;
34920;SDS011;21128;50.016;20.002;2023-11-19T07:35:29;33.70;;;20.60;;
34920;SDS011;21128;50.016;20.002;2023-11-19T07:38:18;34.40;;;19.40;;
34920;SDS011;21128;50.016;20.002;2023-11-19T07:41:05;33.90;;;20.10;;
34920;SDS011;21128;50.016;20.002;2023-11-19T07:43:51;30.90;;;18.10;;
34920;SDS011;21128;50.016;20.002;2023-11-19T07:46:37;29.00;;;17.80;;
34920;SDS011;21128;50.016;20.002;2023-11-19T07:49:23;28.40;;;16.60;;
34920;SDS011;21128;50.016;20.002;2023-11-19T07:52:15;27.80;;;16.70;;
34920;SDS011;21128;50.016;20.002;2023-11-19T07:55:01;27.00;;;15.70;;
34920;SDS011;21128;50.016;20.002;2023-11-19T07:57:47;28.00;;;17.40;;
34920;SDS011;21128;50.016;20.002;2023-11-19T08:00:34;26.20;;;15.80;;
34920;SDS011;21128;50.016;20.002;2023-11-19T08:03:19;31.40;;;16.20;;
34920;SDS011;21128;50.016;20.002;2023-11-19T08:06:07;25.80;;;15.50;;
34920;SDS011;21128;50.016;20.002;2023-11-19T08:08:52;23.10;;;14.70;;
34920;SDS011;21128;50.016;20.002;2023-11-19T08:11:37;26.90;;;15.00;;
34920;SDS011;21128;50.016;20.002;2023-11-19T08:14:30;21.30;;;13.80;;
34920;SDS011;21128;50.016;20.002;2023-11-19T08:17:16;23.60;;;14.70;;
34920;SDS011;21128;50.016;20.002;2023-11-19T08:20:01;21.80;;;14.10;;
34920;SDS011;21128;50.016;20.002;2023-11-19T08:22:47;24.90;;;14.20;;
34920;SDS011;21128;50.016;20.002;2023-11-19T08:25:33;26.30;;;15.70;;
34920;SDS011;21128;50.016;20.002;2023-11-19T08:28:32;22.60;;;12.80;;
34920;SDS011;21128;50.016;20.002;2023-11-19T08:31:19;22.00;;;13.60;;
34920;SDS011;21128;50.016;20.002;2023-11-19T08:34:05;22.70;;;13.20;;
34920;SDS011;21128;50.016;20.002;2023-11-19T08:36:54;21.60;;;13.00;;
34920;SDS011;21128;50.016;20.002;2023-11-19T08:39:39;19.60;;;11.90;;
34920;SDS011;21128;50.016;20.002;2023-11-19T08:42:26;21.50;;;12.00;;
34920;SDS011;21128;50.016;20.002;2023-11-19T08:45:11;23.70;;;14.70;;
34920;SDS011;21128;50.016;20.002;2023-11-19T08:47:57;22.10;;;13.50;;
34920;SDS011;21128;50.016;20.002;2023-11-19T08:50:42;18.10;;;12.00;;
34920;SDS011;21128;50.016;20.002;2023-11-19T08:53:27;22.90;;;13.60;;
34920;SDS011;21128;50.016;20.002;2023-11-19T08:56:13;18.40;;;12.20;;
34920;SDS011;21128;50.016;20.002;2023-11-19T08:59:05;14.90;;;8.40;;
34920;SDS011;21128;50.016;20.002;2023-11-19T09:01:57;18.40;;;11.30;;
34920;SDS011;21128;50.016;20.002;2023-11-19T09:04:42;20.60;;;12.90;;
34920;SDS011;21128;50.016;20.002;2023-11-19T09:07:28;17.40;;;11.50;;
34920;SDS011;21128;50.016;20.002;2023-11-19T09:10:13;19.80;;;13.60;;
34920;SDS011;21128;50.016;20.002;2023-11-19T09:12:59;19.70;;;12.50;;
34920;SDS011;21128;50.016;20.002;2023-11-19T09:15:44;21.20;;;12.20;;
34920;SDS011;21128;50.016;20.002;2023-11-19T09:18:30;26.70;;;15.40;;
34920;SDS011;21128;50.016;20.002;2023-11-19T09:21:17;19.50;;;12.40;;
34920;SDS011;21128;50.016;20.002;2023-11-19T09:24:03;20.20;;;11.70;;
34920;SDS011;21128;50.016;20.002;2023-11-19T09:26:48;20.90;;;12.40;;
34920;SDS011;21128;50.016;20.002;2023-11-19T09:29:41;20.50;;;12.90;;
34920;SDS011;21128;50.016;20.002;2023-11-19T09:32:28;19.80;;;12.20;;
34920;SDS011;21128;50.016;20.002;2023-11-19T09:35:20;21.50;;;12.00;;
34920;SDS011;21128;50.016;20.002;2023-11-19T09:38:12;21.20;;;12.20;;
34920;SDS011;21128;50.016;20.002;2023-11-19T09:41:05;18.90;;;12.60;;
34920;SDS011;21128;50.016;20.002;2023-11-19T09:43:54;22.60;;;12.60;;
34920;SDS011;21128;50.016;20.002;2023-11-19T09:46:40;19.70;;;11.90;;
34920;SDS011;21128;50.016;20.002;2023-11-19T09:49:26;19.60;;;11.00;;
34920;SDS011;21128;50.016;20.002;2023-11-19T09:52:19;18.70;;;12.70;;
34920;SDS011;21128;50.016;20.002;2023-11-19T09:55:04;19.50;;;13.00;;
34920;SDS011;21128;50.016;20.002;2023-11-19T09:57:50;23.80;;;13.10;;
34920;SDS011;21128;50.016;20.002;2023-11-19T10:00:44;22.40;;;13.30;;
34920;SDS011;21128;50.016;20.002;2023-11-19T10:03:32;25.50;;;14.30;;
34920;SDS011;21128;50.016;20.002;2023-11-19T10:06:24;28.60;;;17.80;;
34920;SDS011;21128;50.016;20.002;2023-11-19T10:09:12;24.90;;;13.10;;
34920;SDS011;21128;50.016;20.002;2023-11-19T10:12:00;22.80;;;12.30;;
34920;SDS011;21128;50.016;20.002;2023-11-19T10:14:47;22.70;;;13.00;;
34920;SDS011;21128;50.016;20.002;2023-11-19T10:17:33;27.10;;;13.80;;
34920;SDS011;21128;50.016;20.002;2023-11-19T10:20:20;28.10;;;13.80;;
34920;SDS011;21128;50.016;20.002;2023-11-19T10:23:05;24.90;;;13.80;;
34920;SDS011;21128;50.016;20.002;2023-11-19T10:26:03;28.20;;;13.50;;
34920;SDS011;21128;50.016;20.002;2023-11-19T10:29:01;21.20;;;13.20;;
34920;SDS011;21128;50.016;20.002;2023-11-19T10:31:55;21.20;;;13.80;;
34920;SDS011;21128;50.016;20.002;2023-11-19T10:34:42;23.10;;;14.40;;
34920;SDS011;21128;50.016;20.002;2023-11-19T10:37:28;16.60;;;10.40;;
34920;SDS011;21128;50.016;20.002;2023-11-19T10:40:17;20.00;;;11.40;;
34920;SDS011;21128;50.016;20.002;2023-11-19T10:43:03;18.60;;;11.40;;
34920;SDS011;21128;50.016;20.002;2023-11-19T10:45:49;18.80;;;11.50;;
34920;SDS011;21128;50.016;20.002;2023-11-19T10:48:35;18.90;;;12.20;;
34920;SDS011;21128;50.016;20.002;2023-11-19T10:51:20;18.10;;;11.50;;
34920;SDS011;21128;50.016;20.002;2023-11-19T10:54:08;19.00;;;10.40;;
34920;SDS011;21128;50.016;20.002;2023-11-19T10:56:59;24.80;;;14.40;;
34920;SDS011;21128;50.016;20.002;2023-11-19T10:59:52;19.80;;;11.00;;
34920;SDS011;21128;50.016;20.002;2023-11-19T11:02:47;20.00;;;11.10;;
34920;SDS011;21128;50.016;20.002;2023-11-19T11:05:40;12.00;;;8.10;;
34920;SDS011;21128;50.016;20.002;2023-11-19T11:08:27;15.90;;;9.50;;
34920;SDS011;21128;50.016;20.002;2023-11-19T11:11:13;15.30;;;9.40;;
34920;SDS011;21128;50.016;20.002;2023-11-19T11:14:02;12.70;;;7.90;;
34920;SDS011;21128;50.016;20.002;2023-11-19T11:16:49;22.20;;;9.90;;
34920;SDS011;21128;50.016;20.002;2023-11-19T11:19:36;16.10;;;10.20;;
34920;SDS011;21128;50.016;20.002;2023-11-19T11:22:22;16.40;;;10.00;;
34920;SDS011;21128;50.016;20.002;2023-11-19T11:28:39;18.00;;;9.80;;
34920;SDS011;21128;50.016;20.002;2023-11-19T11:31:34;57.50;;;31.30;;
34920;SDS011;21128;50.016;20.002;2023-11-19T11:34:40;17.70;;;9.90;;
34920;SDS011;21128;50.016;20.002;2023-11-19T11:37:49;14.40;;;8.80;;
34920;SDS011;21128;50.016;20.002;2023-11-19T11:40:38;13.00;;;8.70;;
34920;SDS011;21128;50.016;20.002;2023-11-19T11:49:17;13.80;;;8.90;;
34920;SDS011;21128;50.016;20.002;2023-11-19T11:52:17;17.80;;;9.50;;
34920;SDS011;21128;50.016;20.002;2023-11-19T11:55:04;14.20;;;8.50;;
34920;SDS011;21128;50.016;20.002;2023-11-19T11:57:54;14.80;;;8.80;;
34920;SDS011;21128;50.016;20.002;2023-11-19T12:00:40;15.50;;;9.60;;
34920;SDS011;21128;50.016;20.002;2023-11-19T12:03:27;12.50;;;8.00;;
34920;SDS011;21128;50.016;20.002;2023-11-19T12:06:14;14.70;;;8.60;;
34920;SDS011;21128;50.016;20.002;2023-11-19T12:09:00;16.20;;;8.30;;
34920;SDS011;21128;50.016;20.002;2023-11-19T12:11:47;14.90;;;8.70;;
34920;SDS011;21128;50.016;20.002;2023-11-19T12:17:46;25.10;;;13.60;;
34920;SDS011;21128;50.016;20.002;2023-11-19T12:20:36;93.70;;;39.40;;
34920;SDS011;21128;50.016;20.002;2023-11-19T12:23:22;15.40;;;8.10;;
34920;SDS011;21128;50.016;20.002;2023-11-19T12:26:08;11.20;;;7.40;;
34920;SDS011;21128;50.016;20.002;2023-11-19T12:29:21;11.50;;;6.90;;
34920;SDS011;21128;50.016;20.002;2023-11-19T12:32:07;11.30;;;7.00;;
34920;SDS011;21128;50.016;20.002;2023-11-19T12:34:53;11.50;;;6.60;;
34920;SDS011;21128;50.016;20.002;2023-11-19T12:37:47;11.60;;;6.70;;
34920;SDS011;21128;50.016;20.002;2023-11-19T12:40:34;15.50;;;7.20;;
34920;SDS011;21128;50.016;20.002;2023-11-19T12:43:22;9.60;;;6.50;;
34920;SDS011;21128;50.016;20.002;2023-11-19T12:46:20;8.80;;;5.80;;
34920;SDS011;21128;50.016;20.002;2023-11-19T12:49:07;10.90;;;6.50;;
34920;SDS011;21128;50.016;20.002;2023-11-19T12:51:52;11.30;;;6.90;;
34920;SDS011;21128;50.016;20.002;2023-11-19T12:54:38;11.30;;;6.20;;
34920;SDS011;21128;50.016;20.002;2023-11-19T12:57:37;10.30;;;6.40;;
34920;SDS011;21128;50.016;20.002;2023-11-19T13:00:26;11.10;;;6.90;;
34920;SDS011;21128;50.016;20.002;2023-11-19T13:03:12;9.20;;;5.50;;
34920;SDS011;21128;50.016;20.002;2023-11-19T13:06:01;9.10;;;6.30;;
34920;SDS011;21128;50.016;20.002;2023-11-19T13:08:49;10.50;;;6.50;;
34920;SDS011;21128;50.016;20.002;2023-11-19T13:11:38;14.00;;;7.20;;
34920;SDS011;21128;50.016;20.002;2023-11-19T13:14:35;10.20;;;7.20;;
34920;SDS011;21128;50.016;20.002;2023-11-19T13:17:23;11.00;;;6.80;;
34920;SDS011;21128;50.016;20.002;2023-11-19T13:20:09;10.40;;;7.10;;
34920;SDS011;21128;50.016;20.002;2023-11-19T13:22:56;13.30;;;7.10;;
34920;SDS011;21128;50.016;20.002;2023-11-19T13:25:43;11.80;;;7.10;;
34920;SDS011;21128;50.016;20.002;2023-11-19T13:28:43;12.40;;;7.90;;
34920;SDS011;21128;50.016;20.002;2023-11-19T13:31:28;13.70;;;8.00;;
34920;SDS011;21128;50.016;20.002;2023-11-19T13:34:14;10.80;;;7.30;;
34920;SDS011;21128;50.016;20.002;2023-11-19T13:36:59;11.00;;;6.80;;
34920;SDS011;21128;50.016;20.002;2023-11-19T13:39:45;10.50;;;6.80;;
34920;SDS011;21128;50.016;20.002;2023-11-19T13:42:31;15.40;;;7.80;;
34920;SDS011;21128;50.016;20.002;2023-11-19T13:45:16;12.00;;;7.20;;
34920;SDS011;21128;50.016;20.002;2023-11-19T13:48:03;16.50;;;7.70;;
34920;SDS011;21128;50.016;20.002;2023-11-19T13:50:49;12.70;;;8.00;;
34920;SDS011;21128;50.016;20.002;2023-11-19T13:53:35;18.40;;;8.30;;
34920;SDS011;21128;50.016;20.002;2023-11-19T13:56:20;17.60;;;9.70;;
34920;SDS011;21128;50.016;20.002;2023-11-19T13:59:06;17.70;;;9.80;;
34920;SDS011;21128;50.016;20.002;2023-11-19T14:01:54;14.40;;;9.00;;
34920;SDS011;21128;50.016;20.002;2023-11-19T14:04:39;15.40;;;9.90;;
34920;SDS011;21128;50.016;20.002;2023-11-19T14:07:24;13.70;;;9.20;;
34920;SDS011;21128;50.016;20.002;2023-11-19T14:10:10;17.70;;;10.20;;
34920;SDS011;21128;50.016;20.002;2023-11-19T14:12:58;22.80;;;13.10;;
34920;SDS011;21128;50.016;20.002;2023-11-19T14:15:44;24.40;;;13.90;;
34920;SDS011;21128;50.016;20.002;2023-11-19T14:18:29;19.80;;;10.70;;
34920;SDS011;21128;50.016;20.002;2023-11-19T14:21:15;17.00;;;10.40;;
34920;SDS011;21128;50.016;20.002;2023-11-19T14:24:03;20.60;;;11.30;;
34920;SDS011;21128;50.016;20.002;2023-11-19T14:26:49;23.50;;;11.00;;
34920;SDS011;21128;50.016;20.002;2023-11-19T14:29:43;20.70;;;11.00;;
34920;SDS011;21128;50.016;20.002;2023-11-19T14:32:32;21.80;;;12.80;;
34920;SDS011;21128;50.016;20.002;2023-11-19T14:35:17;20.90;;;12.10;;
34920;SDS011;21128;50.016;20.002;2023-11-19T14:38:03;20.60;;;11.50;;
34920;SDS011;21128;50.016;20.002;2023-11-19T14:40:50;17.70;;;11.50;;
34920;SDS011;21128;50.016;20.002;2023-11-19T14:43:35;19.20;;;11.20;;
34920;SDS011;21128;50.016;20.002;2023-11-19T14:46:21;18.80;;;11.20;;
34920;SDS011;21128;50.016;20.002;2023-11-19T14:49:06;19.20;;;12.20;;
34920;SDS011;21128;50.016;20.002;2023-11-19T14:51:55;19.40;;;11.30;;
34920;SDS011;21128;50.016;20.002;2023-11-19T14:54:40;19.00;;;11.70;;
34920;SDS011;21128;50.016;20.002;2023-11-19T14:57:26;19.70;;;11.40;;
34920;SDS011;21128;50.016;20.002;2023-11-19T15:00:11;21.60;;;11.60;;
34920;SDS011;21128;50.016;20.002;2023-11-19T15:03:00;21.40;;;11.30;;
34920;SDS011;21128;50.016;20.002;2023-11-19T15:05:46;18.90;;;11.90;;
34920;SDS011;21128;50.016;20.002;2023-11-19T15:08:31;21.70;;;11.30;;
34920;SDS011;21128;50.016;20.002;2023-11-19T15:11:17;28.60;;;12.00;;
34920;SDS011;21128;50.016;20.002;2023-11-19T15:14:02;24.50;;;13.50;;
34920;SDS011;21128;50.016;20.002;2023-11-19T15:16:48;18.70;;;10.70;;
34920;SDS011;21128;50.016;20.002;2023-11-19T15:19:36;18.60;;;11.60;;
34920;SDS011;21128;50.016;20.002;2023-11-19T15:22:22;23.40;;;15.60;;
34920;SDS011;21128;50.016;20.002;2023-11-19T15:25:14;17.30;;;12.20;;
34920;SDS011;21128;50.016;20.002;2023-11-19T15:27:59;18.20;;;12.70;;
34920;SDS011;21128;50.016;20.002;2023-11-19T15:30:58;22.60;;;15.00;;
34920;SDS011;21128;50.016;20.002;2023-11-19T15:33:43;24.50;;;15.40;;
34920;SDS011;21128;50.016;20.002;2023-11-19T15:36:29;25.90;;;15.10;;
34920;SDS011;21128;50.016;20.002;2023-11-19T15:39:17;27.90;;;15.50;;
34920;SDS011;21128;50.016;20.002;2023-11-19T15:42:02;26.80;;;16.50;;
34920;SDS011;21128;50.016;20.002;2023-11-19T15:44:48;27.10;;;15.80;;
34920;SDS011;21128;50.016;20.002;2023-11-19T15:47:34;24.70;;;15.30;;
34920;SDS011;21128;50.016;20.002;2023-11-19T15:50:20;24.60;;;15.00;;
34920;SDS011;21128;50.016;20.002;2023-11-19T15:53:05;23.20;;;14.60;;
34920;SDS011;21128;50.016;20.002;2023-11-19T15:55:51;26.80;;;15.90;;
34920;SDS011;21128;50.016;20.002;2023-11-19T15:58:38;24.50;;;15.50;;
34920;SDS011;21128;50.016;20.002;2023-11-19T16:01:24;28.60;;;14.70;;
34920;SDS011;21128;50.016;20.002;2023-11-19T16:04:10;26.70;;;15.10;;
34920;SDS011;21128;50.016;20.002;2023-11-19T16:06:55;24.40;;;13.80;;
34920;SDS011;21128;50.016;20.002;2023-11-19T16:09:41;26.10;;;15.00;;
34920;SDS011;21128;50.016;20.002;2023-11-19T16:12:33;30.60;;;15.30;;
34920;SDS011;21128;50.016;20.002;2023-11-19T16:15:19;25.20;;;14.90;;
34920;SDS011;21128;50.016;20.002;2023-11-19T16:18:05;25.10;;;15.10;;
34920;SDS011;21128;50.016;20.002;2023-11-19T16:20:54;24.60;;;15.40;;
34920;SDS011;21128;50.016;20.002;2023-11-19T16:23:40;25.40;;;14.50;;
34920;SDS011;21128;50.016;20.002;2023-11-19T16:26:32;27.60;;;14.10;;